Ichikawa, Japan
Current Conditions -  °F | °C
As of 5:30 AM on Saturday 01 Nov 2014 (Local Time) from RJTT Reporting Station
Light Rain Light Rain  
Wind Chill: 63°   Ceiling: 12000
Heat Index: 63°   Visibility: 4mi
Dew Point: 57°   Wind: 5mph
Humidity: 82%   Direction: 70°ENE
Pressure: 30.09"   Gusts: NA
Location:  35.72°N, 139.93°E
Report Text: RJTT 312030Z 07004KT 6000 -RA FEW040 SCT100 OVC120 17/14 Q1019 TEMPO 4000 -RA BR RMK 1SC040 3AC100 8AS120 A3012
Loading
Personal Weather Stations






























Interactive Weather Map
Tropical Storm Tracking
New forecast layout! Learn more

10-Day Weather Forecast

Advertisements
Track Severe Weather on mobile